Time;durP1;ratioP1;P1;durP2;ratioP2;P2;SDS_P1;SDS_P2;PMS_P1;PMS_P2;Temp;Humidity;BMP_temperature;BMP_pressure;BME280_temperature;BME280_humidity;BME280_pressure;Samples;Min_cycle;Max_cycle;Signal;HPM_P1;HPM_P2
2022/02/07 00:01:34;;;;;;;3.00;0.40;;;;;;;1.49;94.76;99229.92;107636;1281;71492;-80
2022/02/07 00:04:03;;;;;;;3.30;0.40;;;;;;;1.51;94.70;99224.91;107591;1281;73127;-80
2022/02/07 00:06:30;;;;;;;1.50;0.40;;;;;;;1.54;94.92;99232.45;107558;1282;62747;-80
2022/02/07 00:08:56;;;;;;;2.30;0.60;;;;;;;1.56;95.07;99232.90;107556;1282;60739;-80
2022/02/07 00:11:23;;;;;;;8.60;1.10;;;;;;;1.59;95.27;99238.39;107455;1282;74185;-80
2022/02/07 00:13:49;;;;;;;5.70;0.90;;;;;;;1.60;94.95;99244.30;107618;1281;59770;-80
2022/02/07 00:16:16;;;;;;;1.20;0.20;;;;;;;1.63;94.53;99241.62;107584;1282;60176;-81
2022/02/07 00:18:43;;;;;;;5.50;0.90;;;;;;;1.63;94.07;99253.79;107511;1282;61599;-80
2022/02/07 00:21:10;;;;;;;4.70;1.00;;;;;;;1.67;94.05;99260.98;107567;1280;61694;-80
2022/02/07 00:23:37;;;;;;;4.30;0.60;;;;;;;1.65;94.08;99257.79;107498;1282;76017;-80
2022/02/07 00:26:04;;;;;;;3.80;0.90;;;;;;;1.64;94.39;99268.92;107499;1282;71417;-80
2022/02/07 00:28:31;;;;;;;1.40;0.40;;;;;;;1.61;94.62;99275.66;107575;1282;74114;-80
2022/02/07 00:30:57;;;;;;;4.60;1.10;;;;;;;1.58;95.13;99283.95;107618;1282;59189;-81
2022/02/07 00:33:24;;;;;;;7.60;1.00;;;;;;;1.56;95.16;99285.74;107599;1281;59911;-81
2022/02/07 00:35:50;;;;;;;2.80;0.20;;;;;;;1.54;95.27;99292.34;107576;1282;75093;-80
2022/02/07 00:38:20;;;;;;;3.80;0.80;;;;;;;1.53;95.05;99297.48;107824;1281;71497;-80
2022/02/07 00:41:15;;;;;;;2.60;0.20;;;;;;;1.53;94.94;99303.80;107804;1282;71605;-80
2022/02/07 00:43:46;;;;;;;5.80;1.30;;;;;;;1.51;94.50;99321.38;107842;1282;61472;-80
2022/02/07 00:46:20;;;;;;;2.50;0.80;;;;;;;1.50;94.43;99321.27;107960;1282;60352;-81
2022/02/07 00:48:46;;;;;;;5.50;1.10;;;;;;;1.49;93.44;99324.59;108018;1281;76079;-81
2022/02/07 00:51:13;;;;;;;2.10;0.40;;;;;;;1.47;93.12;99329.77;107569;1281;71316;-81
2022/02/07 00:53:40;;;;;;;13.50;0.90;;;;;;;1.47;92.99;99325.46;107631;1280;73262;-81
2022/02/07 00:56:07;;;;;;;5.50;1.10;;;;;;;1.44;92.68;99333.92;107532;1282;62625;-80
2022/02/07 00:58:33;;;;;;;4.60;0.90;;;;;;;1.44;92.41;99345.45;107459;1282;60606;-81
2022/02/07 01:01:00;;;;;;;6.40;1.20;;;;;;;1.42;92.85;99348.16;107593;1280;74840;-81
2022/02/07 01:03:26;;;;;;;1.80;0.80;;;;;;;1.41;93.49;99358.95;107535;1282;71047;-81
2022/02/07 01:05:53;;;;;;;5.80;1.40;;;;;;;1.38;93.99;99370.35;107473;1282;59127;-81
2022/02/07 01:08:26;;;;;;;7.50;0.90;;;;;;;1.34;94.30;99376.33;107384;1282;60439;-81
2022/02/07 01:11:09;;;;;;;3.90;0.60;;;;;;;1.29;94.42;99371.73;107395;1282;61889;-81
2022/02/07 01:46:04;;;;;;;5.50;0.50;;;;;;;1.04;94.75;99425.88;107285;1281;59062;-83
2022/02/07 01:52:22;;;;;;;7.10;1.40;;;;;;;0.92;96.30;99526.09;107575;1282;60448;-80
2022/02/07 01:55:04;;;;;;;5.10;0.60;;;;;;;0.90;96.51;99531.46;107566;1282;74937;-80
2022/02/07 01:57:30;;;;;;;1.10;0.40;;;;;;;0.89;96.66;99537.25;107564;1282;71396;-81
2022/02/07 01:59:57;;;;;;;4.40;0.80;;;;;;;0.90;96.67;99544.12;107532;1280;72914;-82
2022/02/07 02:02:24;;;;;;;4.10;0.70;;;;;;;0.90;96.68;99557.92;107572;1282;61958;-85
2022/02/07 02:04:51;;;;;;;3.00;0.90;;;;;;;0.88;97.01;99565.92;107463;1282;61885;-82
2022/02/07 02:07:18;;;;;;;3.50;0.70;;;;;;;0.86;97.11;99572.71;107566;1280;74744;-81
2022/02/07 02:09:45;;;;;;;3.90;1.00;;;;;;;0.86;97.41;99579.55;107617;1281;59280;-83
2022/02/07 02:12:12;;;;;;;4.60;0.90;;;;;;;0.86;97.45;99589.81;107572;1281;72893;-85
2022/02/07 02:14:55;;;;;;;3.50;1.20;;;;;;;0.87;97.30;99587.77;107636;1280;61843;-81
2022/02/07 02:17:56;;;;;;;6.30;0.90;;;;;;;0.91;97.26;99599.06;107503;1282;60774;-84
2022/02/07 02:46:59;;;;;;;2.60;0.40;;;;;;;1.32;95.90;99666.52;107767;1281;74934;-81
2022/02/07 02:49:32;;;;;;;5.80;1.40;;;;;;;1.32;95.70;99674.41;107687;1281;58664;-80
2022/02/07 02:51:59;;;;;;;7.50;1.00;;;;;;;1.33;95.99;99675.02;107815;1280;73051;-80
2022/02/07 02:54:25;;;;;;;1.50;0.30;;;;;;;1.35;96.23;99683.86;107881;1280;62716;-80
2022/02/07 02:56:52;;;;;;;3.90;0.80;;;;;;;1.36;96.91;99692.14;107824;1280;60308;-80
2022/02/07 02:59:19;;;;;;;3.00;0.90;;;;;;;1.37;97.36;99697.29;107928;1279;59933;-86
2022/02/07 03:01:45;;;;;;;1.70;0.40;;;;;;;1.37;97.52;99709.11;107585;1280;71499;-85
2022/02/07 03:04:12;;;;;;;3.70;1.40;;;;;;;1.39;97.50;99719.23;107824;1280;59487;-83
2022/02/07 03:06:39;;;;;;;2.30;0.80;;;;;;;1.43;97.14;99751.80;107815;1280;62524;-85
2022/02/07 03:09:13;;;;;;;1.80;0.30;;;;;;;1.48;97.02;99737.89;107846;1280;60735;-84
2022/02/07 03:11:40;;;;;;;10.40;1.20;;;;;;;1.50;97.16;99738.29;107788;1280;74844;-81
2022/02/07 03:14:07;;;;;;;8.70;2.10;;;;;;;1.50;97.45;99749.55;107643;1280;72178;-80
2022/02/07 03:16:40;;;;;;;5.80;1.20;;;;;;;1.54;97.29;99761.55;107861;1279;74915;-82
2022/02/07 03:19:15;;;;;;;7.20;1.60;;;;;;;1.57;97.26;99753.43;107765;1280;62360;-84
2022/02/07 03:21:43;;;;;;;4.70;1.50;;;;;;;1.58;97.29;99763.96;107821;1280;62167;-83
2022/02/07 03:24:10;;;;;;;4.90;0.90;;;;;;;1.57;97.68;99780.13;107850;1280;73918;-80
2022/02/07 03:26:43;;;;;;;4.50;0.80;;;;;;;1.55;98.13;99778.52;107909;1279;70278;-80
2022/02/07 03:29:12;;;;;;;2.70;0.70;;;;;;;1.50;98.40;99791.88;107647;1280;74796;-80
2022/02/07 03:31:39;;;;;;;0.30;0.20;;;;;;;1.50;98.44;99784.11;107764;1281;61109;-81
2022/02/07 03:34:06;;;;;;;2.70;0.90;;;;;;;1.48;98.75;99791.95;107850;1280;61468;-80
2022/02/07 03:36:33;;;;;;;8.50;1.70;;;;;;;1.48;98.95;99805.88;107623;1280;76224;-80
2022/02/07 03:39:01;;;;;;;11.90;1.90;;;;;;;1.51;98.91;99807.02;107828;1280;71136;-81
2022/02/07 03:41:27;;;;;;;3.70;0.90;;;;;;;1.53;98.71;99819.20;107806;1280;74042;-80
2022/02/07 03:43:54;;;;;;;3.50;0.90;;;;;;;1.57;98.60;99806.11;107830;1280;61606;-83
2022/02/07 03:46:21;;;;;;;4.60;0.30;;;;;;;1.59;98.23;99822.63;107845;1280;60964;-84
2022/02/07 03:48:48;;;;;;;6.90;0.90;;;;;;;1.61;97.51;99822.60;107846;1280;74892;-82
2022/02/07 03:51:14;;;;;;;4.10;0.60;;;;;;;1.63;97.33;99815.34;107689;1280;71369;-80
2022/02/07 03:53:41;;;;;;;3.30;0.90;;;;;;;1.66;97.15;99829.36;107826;1280;59090;-80
2022/02/07 03:56:07;;;;;;;1.80;0.60;;;;;;;1.67;97.25;99835.59;107878;1280;61557;-81
2022/02/07 03:58:34;;;;;;;6.50;0.90;;;;;;;1.65;97.40;99836.21;107813;1279;60920;-84
2022/02/07 04:01:01;;;;;;;6.40;1.20;;;;;;;1.66;97.61;99849.23;107839;1280;73986;-85
2022/02/07 04:03:30;;;;;;;2.80;0.70;;;;;;;1.67;97.87;99844.80;107808;1280;72580;-83
2022/02/07 04:06:01;;;;;;;6.30;1.80;;;;;;;1.67;97.86;99846.31;107867;1280;73077;-84
2022/02/07 04:08:35;;;;;;;4.20;0.80;;;;;;;1.67;98.26;99851.73;107699;1281;60327;-84
2022/02/07 04:13:40;;;;;;;2.90;0.60;;;;;;;1.68;98.55;99867.84;107805;1279;75136;-80
2022/02/07 04:16:07;;;;;;;6.90;0.80;;;;;;;1.66;98.49;99880.27;107879;1279;71454;-83
2022/02/07 04:18:49;;;;;;;10.00;1.10;;;;;;;1.66;98.64;99880.08;107580;1280;72989;-82
2022/02/07 04:21:16;;;;;;;5.60;1.00;;;;;;;1.65;98.81;99889.05;107709;1280;62659;-79
2022/02/07 04:23:44;;;;;;;4.70;0.60;;;;;;;1.61;99.37;99896.73;107839;1280;60658;-81
2022/02/07 04:26:10;;;;;;;3.70;0.50;;;;;;;1.55;99.90;99887.14;107831;1280;76160;-81
2022/02/07 04:28:37;;;;;;;6.20;0.80;;;;;;;1.50;100.00;99893.50;107832;1280;70367;-84
2022/02/07 04:31:03;;;;;;;6.90;0.80;;;;;;;1.46;100.00;99897.13;107808;1280;73180;-81
2022/02/07 04:33:30;;;;;;;8.50;1.80;;;;;;;1.47;100.00;99913.60;107884;1280;59210;-80
2022/02/07 04:35:56;;;;;;;3.80;0.60;;;;;;;1.49;100.00;99918.66;107615;1281;59621;-80
2022/02/07 04:38:23;;;;;;;4.10;1.00;;;;;;;1.51;100.00;99911.23;107880;1280;75091;-81
2022/02/07 04:40:49;;;;;;;4.30;1.10;;;;;;;1.53;100.00;99904.20;107889;1280;71157;-80
2022/02/07 04:43:18;;;;;;;6.40;1.00;;;;;;;1.58;100.00;99945.55;107818;1280;74168;-81
2022/02/07 04:46:11;;;;;;;4.20;0.80;;;;;;;1.66;100.00;99965.12;107671;1282;61436;-82
2022/02/07 04:55:00;;;;;;;4.70;0.80;;;;;;;1.83;99.58;99981.91;107848;1280;71386;-83
2022/02/07 05:02:16;;;;;;;6.30;1.40;;;;;;;1.91;99.46;100013.08;107923;1279;62554;-82
2022/02/07 05:04:49;;;;;;;4.60;1.10;;;;;;;1.97;98.77;100032.82;107931;1279;76179;-83
2022/02/07 05:15:33;;;;;;;14.80;2.20;;;;;;;2.29;96.55;100069.21;107933;1279;60506;-85
2022/02/07 05:18:00;;;;;;;9.70;1.80;;;;;;;2.34;95.77;100095.44;107823;1279;75753;-82
2022/02/07 05:20:27;;;;;;;4.00;1.20;;;;;;;2.38;95.78;100098.42;107575;1279;71407;-81
2022/02/07 05:22:53;;;;;;;14.70;1.90;;;;;;;2.39;95.87;100094.30;107940;1279;72915;-81
2022/02/07 05:25:20;;;;;;;5.90;1.10;;;;;;;2.40;95.99;100115.13;107715;1281;59762;-82
2022/02/07 05:27:47;;;;;;;7.50;1.60;;;;;;;2.42;95.88;100128.95;107803;1279;61688;-83
2022/02/07 05:30:14;;;;;;;8.90;1.60;;;;;;;2.43;95.77;100137.19;107956;1279;74891;-80
2022/02/07 05:32:41;;;;;;;12.90;1.40;;;;;;;2.48;95.73;100150.98;107922;1279;70531;-81
2022/02/07 05:35:08;;;;;;;7.30;1.60;;;;;;;2.51;95.28;100154.84;107844;1279;75609;-82
2022/02/07 05:37:35;;;;;;;5.40;1.00;;;;;;;2.53;95.03;100165.50;107674;1279;61458;-83
2022/02/07 05:40:08;;;;;;;10.80;1.30;;;;;;;2.53;95.22;100181.10;107896;1279;60784;-81
2022/02/07 05:42:37;;;;;;;11.40;1.90;;;;;;;2.52;95.25;100195.30;107738;1280;74940;-81
2022/02/07 05:45:07;;;;;;;3.10;1.10;;;;;;;2.52;95.10;100207.31;107678;1280;72468;-81
2022/02/07 05:47:35;;;;;;;10.40;2.00;;;;;;;2.53;95.25;100219.45;107690;1280;72971;-84
2022/02/07 05:50:04;;;;;;;5.80;1.30;;;;;;;2.52;95.34;100216.61;107593;1280;61198;-82
2022/02/07 05:52:30;;;;;;;10.80;2.10;;;;;;;2.51;95.62;100211.26;107652;1280;60441;-83
2022/02/07 05:54:57;;;;;;;7.90;1.70;;;;;;;2.51;95.21;100238.34;107797;1281;59119;-80
2022/02/07 05:57:23;;;;;;;10.70;1.80;;;;;;;2.49;95.60;100238.64;107714;1282;59291;-80
2022/02/07 05:59:50;;;;;;;10.20;1.30;;;;;;;2.48;95.57;100236.27;107869;1280;59317;-81
2022/02/07 06:02:16;;;;;;;11.80;2.10;;;;;;;2.46;95.76;100238.58;107850;1280;59274;-79
2022/02/07 06:04:43;;;;;;;12.10;2.30;;;;;;;2.44;95.80;100244.70;107877;1280;61588;-80
2022/02/07 06:07:11;;;;;;;15.00;1.60;;;;;;;2.41;95.85;100248.91;107819;1280;74669;-80
2022/02/07 06:09:39;;;;;;;14.50;1.40;;;;;;;2.38;96.03;100265.40;107878;1280;71751;-80
2022/02/07 06:12:07;;;;;;;17.00;2.50;;;;;;;2.35;96.27;100265.48;107846;1280;72955;-81
2022/02/07 06:14:33;;;;;;;17.40;2.40;;;;;;;2.32;96.38;100267.86;107662;1280;61185;-80
2022/02/07 06:17:00;;;;;;;11.60;2.00;;;;;;;2.28;96.62;100279.16;107916;1280;60296;-81
2022/02/07 06:19:29;;;;;;;11.90;2.30;;;;;;;2.26;96.87;100292.98;107715;1280;76077;-81
2022/02/07 06:21:56;;;;;;;7.70;1.90;;;;;;;2.26;97.17;100298.09;107643;1281;71420;-81
2022/02/07 06:24:24;;;;;;;12.20;1.80;;;;;;;2.27;97.43;100314.88;107690;1282;72926;-81
2022/02/07 06:26:50;;;;;;;20.50;2.00;;;;;;;2.31;97.18;100314.41;107826;1280;61428;-81
2022/02/07 06:29:17;;;;;;;17.20;2.00;;;;;;;2.33;97.32;100323.95;107683;1281;61649;-80
2022/02/07 06:31:44;;;;;;;7.80;0.70;;;;;;;2.35;97.48;100326.80;107892;1279;59197;-82
2022/02/07 06:34:11;;;;;;;8.40;1.30;;;;;;;2.36;97.38;100327.94;107635;1280;71404;-81
2022/02/07 06:36:37;;;;;;;6.10;0.90;;;;;;;2.37;97.38;100347.20;107830;1280;72953;-80
2022/02/07 06:39:04;;;;;;;12.80;2.10;;;;;;;2.39;97.67;100330.63;107519;1280;62613;-81
2022/02/07 06:41:31;;;;;;;21.50;2.20;;;;;;;2.42;97.34;100341.69;107839;1280;60651;-82
2022/02/07 06:43:57;;;;;;;11.70;2.10;;;;;;;2.46;97.88;100351.66;107919;1280;74935;-81
2022/02/07 06:46:24;;;;;;;11.50;1.60;;;;;;;2.50;97.79;100351.84;107749;1280;71385;-81
2022/02/07 06:48:51;;;;;;;13.00;1.90;;;;;;;2.53;97.75;100365.05;107828;1281;73016;-79
2022/02/07 06:51:17;;;;;;;13.50;1.50;;;;;;;2.56;97.36;100376.27;107969;1280;59040;-79
2022/02/07 06:53:45;;;;;;;7.10;1.20;;;;;;;2.58;97.43;100378.94;108005;1280;59427;-82
2022/02/07 06:56:12;;;;;;;5.10;1.00;;;;;;;2.60;97.27;100385.70;107790;1282;74903;-79
2022/02/07 06:58:38;;;;;;;12.40;1.90;;;;;;;2.61;97.26;100386.67;107960;1279;60171;-81
2022/02/07 07:01:05;;;;;;;13.10;1.80;;;;;;;2.61;97.21;100411.50;108014;1280;59527;-80
2022/02/07 07:03:34;;;;;;;14.70;2.30;;;;;;;2.61;97.35;100414.62;107982;1280;61496;-82
2022/02/07 07:06:01;;;;;;;7.70;2.10;;;;;;;2.65;97.36;100427.55;107977;1280;61685;-81
2022/02/07 07:08:28;;;;;;;12.80;1.80;;;;;;;2.70;97.36;100428.70;107998;1281;74752;-82
2022/02/07 07:10:58;;;;;;;10.60;2.30;;;;;;;2.76;97.07;100439.33;107560;1282;72477;-81
2022/02/07 07:13:36;;;;;;;10.80;1.70;;;;;;;2.81;96.68;100446.41;107594;1281;74154;-81
2022/02/07 07:16:15;;;;;;;15.80;1.90;;;;;;;2.84;96.68;100450.34;107999;1280;61433;-81
2022/02/07 07:18:41;;;;;;;6.80;1.60;;;;;;;2.86;96.39;100449.14;107872;1280;60552;-80
2022/02/07 07:21:08;;;;;;;17.00;1.80;;;;;;;2.88;95.81;100447.26;107773;1281;59393;-80
2022/02/07 07:23:37;;;;;;;8.30;1.50;;;;;;;2.90;95.76;100465.46;107887;1280;72336;-80
2022/02/07 07:26:03;;;;;;;10.50;1.30;;;;;;;2.90;96.12;100474.20;107740;1281;72959;-79
2022/02/07 07:28:30;;;;;;;4.10;1.00;;;;;;;2.92;95.79;100485.23;107734;1280;60149;-79
2022/02/07 07:30:58;;;;;;;9.40;1.90;;;;;;;2.93;95.74;100492.45;107723;1281;365446;-80
2022/02/07 07:33:27;;;;;;;9.60;1.70;;;;;;;2.96;95.67;100513.09;108019;1280;74968;-79
2022/02/07 07:35:54;;;;;;;10.30;1.60;;;;;;;3.01;95.07;100518.31;108046;1280;70966;-80
2022/02/07 07:38:20;;;;;;;10.40;2.00;;;;;;;3.06;94.98;100531.87;108035;1280;73139;-79
2022/02/07 07:40:48;;;;;;;6.90;1.50;;;;;;;3.09;94.62;100546.59;108044;1281;61560;-80
2022/02/07 07:43:14;;;;;;;6.00;1.20;;;;;;;3.12;94.52;100551.13;108033;1280;59465;-81
2022/02/07 07:46:03;;;;;;;4.90;1.20;;;;;;;3.10;94.79;100569.80;108048;1280;74861;-81
2022/02/07 07:48:31;;;;;;;10.70;1.50;;;;;;;3.08;94.90;100575.00;108036;1280;72580;-80
2022/02/07 07:51:05;;;;;;;9.40;1.60;;;;;;;3.04;94.93;100575.19;108056;1280;74546;-81
2022/02/07 08:01:45;;;;;;;16.70;2.90;;;;;;;3.03;95.85;100590.79;107640;1279;71489;-80
2022/02/07 08:04:14;;;;;;;5.80;1.40;;;;;;;3.08;95.97;100593.35;108044;1280;74019;-80
2022/02/07 08:12:02;;;;;;;13.30;2.40;;;;;;;3.23;95.51;100606.92;108081;1280;76306;-79
2022/02/07 08:14:30;;;;;;;16.90;2.50;;;;;;;3.25;94.90;100609.95;107746;1281;73008;-81
2022/02/07 08:17:21;;;;;;;4.90;1.10;;;;;;;3.31;94.88;100610.00;108014;1281;74420;-81
2022/02/07 08:19:49;;;;;;;17.00;3.10;;;;;;;3.38;94.86;100613.94;108069;1280;61462;-80
2022/02/07 08:22:15;;;;;;;3.60;1.20;;;;;;;3.47;94.29;100620.30;107795;1281;61837;-80
2022/02/07 08:24:43;;;;;;;5.80;1.40;;;;;;;3.52;94.18;100620.93;107901;1281;59225;-80
2022/02/07 08:27:10;;;;;;;7.80;1.40;;;;;;;3.54;94.06;100621.44;107745;1281;72608;-79
2022/02/07 08:29:36;;;;;;;10.40;1.90;;;;;;;3.55;93.98;100631.88;108050;1281;72639;-79
2022/02/07 08:32:04;;;;;;;9.70;1.50;;;;;;;3.60;93.75;100637.89;108018;1281;61452;-79
2022/02/07 08:34:30;;;;;;;8.50;1.70;;;;;;;3.67;93.26;100642.20;108039;1281;60544;-79
2022/02/07 08:37:02;;;;;;;9.80;1.90;;;;;;;3.69;92.80;100662.53;107773;1281;59189;-80
2022/02/07 08:39:29;;;;;;;23.90;3.00;;;;;;;3.69;92.40;100664.95;108046;1280;71226;-80
2022/02/07 08:41:58;;;;;;;11.50;2.10;;;;;;;3.70;93.19;100676.61;107949;1281;74073;-80
2022/02/07 08:44:26;;;;;;;16.40;2.10;;;;;;;3.71;93.48;100687.35;107984;1281;62276;-80
2022/02/07 08:46:55;;;;;;;14.50;2.30;;;;;;;3.71;93.36;100694.16;107702;1281;59468;-79
2022/02/07 08:49:22;;;;;;;15.60;3.30;;;;;;;3.72;93.18;100704.44;108021;1280;76008;-79
2022/02/07 08:51:49;;;;;;;26.70;3.50;;;;;;;3.69;93.17;100725.12;107701;1281;72491;-78
2022/02/07 08:54:24;;;;;;;6.90;1.60;;;;;;;3.64;93.62;100738.77;108049;1281;73001;-80
2022/02/07 08:56:59;;;;;;;10.60;1.50;;;;;;;3.57;94.99;100747.13;107989;1281;63218;-81
2022/02/07 08:59:40;;;;;;;5.30;0.90;;;;;;;3.39;96.00;100782.71;107477;1283;60649;-82
2022/02/07 09:04:46;;;;;;;2.30;0.70;;;;;;;2.13;95.94;100810.79;107804;1281;71353;-82
2022/02/07 09:07:26;;;;;;;12.10;1.40;;;;;;;1.84;98.84;100789.98;107942;1280;73038;-82
2022/02/07 09:09:54;;;;;;;7.20;1.00;;;;;;;1.74;99.95;100791.61;107915;1281;61528;-83
2022/02/07 09:12:20;;;;;;;18.60;2.80;;;;;;;1.75;100.00;100795.56;108013;1281;60852;-81
2022/02/07 09:15:06;;;;;;;13.30;1.80;;;;;;;1.81;100.00;100796.52;107959;1281;59425;-83
2022/02/07 09:17:33;;;;;;;4.50;2.30;;;;;;;1.90;100.00;100817.75;108003;1281;71843;-82
2022/02/07 09:19:59;;;;;;;5.50;1.40;;;;;;;2.05;100.00;100805.48;107927;1281;58992;-81
2022/02/07 09:22:26;;;;;;;5.60;0.70;;;;;;;2.22;100.00;100805.73;108036;1281;59191;-81
2022/02/07 09:24:53;;;;;;;9.50;1.30;;;;;;;2.37;100.00;100804.57;107968;1281;60846;-81
2022/02/07 09:27:19;;;;;;;18.10;1.60;;;;;;;2.48;99.56;100802.37;107461;1284;75991;-82
2022/02/07 09:29:48;;;;;;;4.90;2.40;;;;;;;2.58;98.86;100814.47;107957;1280;71364;-82
2022/02/07 09:32:15;;;;;;;5.50;1.40;;;;;;;2.64;98.03;100821.84;107780;1282;59187;-82
2022/02/07 09:34:41;;;;;;;15.40;1.80;;;;;;;2.68;97.73;100814.58;108014;1280;61651;-82
2022/02/07 09:37:10;;;;;;;7.70;1.90;;;;;;;2.68;97.12;100822.61;107950;1281;59016;-83
2022/02/07 09:39:36;;;;;;;21.80;2.10;;;;;;;2.66;96.83;100831.53;107941;1281;76129;-83
2022/02/07 09:42:04;;;;;;;11.60;2.10;;;;;;;2.68;96.47;100847.23;108012;1281;71870;-83
2022/02/07 09:44:41;;;;;;;7.10;1.60;;;;;;;2.74;96.43;100857.64;107708;1281;72947;-82
2022/02/07 09:47:09;;;;;;;20.70;2.30;;;;;;;2.84;96.01;100859.73;107813;1281;60461;-81
2022/02/07 09:50:34;;;;;;;;;;;;;;;;;;;;;
2022/02/07 09:53:38;;;;;;;;;;;;;;;;;;;;;
2022/02/07 09:57:08;;;;;;;14.40;2.30;;;;;;;3.23;95.08;100879.39;107962;1281;71683;-82
2022/02/07 10:00:08;;;;;;;15.90;3.00;;;;;;;3.40;94.95;100888.34;107892;1280;73535;-82
2022/02/07 10:03:49;;;;;;;16.80;1.70;;;;;;;3.55;94.21;100894.48;107924;1281;61325;-83
2022/02/07 10:09:41;;;;;;;7.40;1.50;;;;;;;3.92;92.84;100907.02;107402;1275;73767;-81
2022/02/07 10:15:14;;;;;;;12.60;2.80;;;;;;;4.18;90.31;100940.06;107851;1282;73815;-80
2022/02/07 10:17:56;;;;;;;26.80;3.50;;;;;;;4.34;89.19;100932.80;107882;1281;61001;-80
2022/02/07 10:34:32;;;;;;;24.40;3.10;;;;;;;4.62;85.64;100969.86;107834;1281;75035;-82
2022/02/07 10:39:28;;;;;;;19.90;3.20;;;;;;;5.37;79.17;100980.47;107595;1279;76216;-82
2022/02/07 10:45:18;;;;;;;15.80;2.60;;;;;;;5.71;77.02;100993.56;107894;1279;74015;-79
2022/02/07 10:47:51;;;;;;;25.60;4.40;;;;;;;5.75;77.53;100987.64;107581;1280;62222;-79
2022/02/07 10:51:11;;;;;;;;;;;;;;;;;;;;;
2022/02/07 10:53:47;;;;;;;;;;;;;;;5.69;76.17;101024.84;108152;1279;76155;-79
2022/02/07 10:56:20;;;;;;;14.60;1.80;;;;;;;5.63;76.71;100998.66;108074;1279;72285;-79
2022/02/07 10:59:13;;;;;;;15.70;2.60;;;;;;;5.62;77.18;101011.77;108030;1281;73108;-81
2022/02/07 11:02:41;;;;;;;8.00;2.30;;;;;;;5.63;76.47;101020.96;108163;1279;61791;-81
2022/02/07 11:05:28;;;;;;;;;;;;;;;;;;;;;
2022/02/07 11:15:26;;;;;;;9.10;2.10;;;;;;;5.59;70.75;101024.59;107227;1287;72996;-86
2022/02/07 11:18:11;;;;;;;24.40;2.70;;;;;;;5.61;68.68;101048.54;107141;1271;61000;31
2022/02/07 11:23:27;;;;;;;9.60;1.90;;;;;;;5.59;69.64;101050.83;107177;1281;75764;-82
2022/02/07 11:26:03;;;;;;;11.40;1.90;;;;;;;5.63;70.87;101058.84;107205;1287;71393;-81
2022/02/07 11:28:39;;;;;;;8.20;1.50;;;;;;;5.67;71.02;101047.39;107381;1285;75107;-83
2022/02/07 11:31:10;;;;;;;15.20;1.70;;;;;;;5.79;70.78;101047.14;107351;1284;63733;-84
2022/02/07 11:33:39;;;;;;;9.90;1.90;;;;;;;5.95;70.65;101060.50;107288;1287;60577;-84
2022/02/07 11:36:26;;;;;;;13.40;1.80;;;;;;;6.06;70.66;101061.64;107365;1285;75152;-83
2022/02/07 11:38:57;;;;;;;16.30;2.40;;;;;;;6.17;71.25;101039.52;107376;1285;71167;-83
2022/02/07 11:41:23;;;;;;;12.80;1.70;;;;;;;6.26;70.10;101064.97;107372;1285;72992;-84
2022/02/07 11:43:50;;;;;;;11.10;2.20;;;;;;;6.40;69.61;101064.59;107298;1287;61706;-83
2022/02/07 11:46:17;;;;;;;21.10;2.40;;;;;;;6.60;68.48;101076.76;107121;1285;61603;-84
2022/02/07 11:51:18;;;;;;;9.20;1.70;;;;;;;6.99;65.95;101065.65;107253;1281;59179;-85
2022/02/07 11:53:51;;;;;;;7.80;2.00;;;;;;;6.94;66.19;101068.94;107268;1286;74695;-81
2022/02/07 11:56:35;;;;;;;11.10;2.80;;;;;;;6.71;66.20;101075.60;106989;1287;60362;-83
2022/02/07 11:59:07;;;;;;;11.60;2.30;;;;;;;6.55;67.13;101069.68;107117;1287;60652;-82
2022/02/07 12:01:50;;;;;;;10.60;1.60;;;;;;;6.38;67.01;101093.52;107323;1285;76436;-83
2022/02/07 12:10:46;;;;;;;14.30;2.90;;;;;;;6.03;70.29;101088.94;107469;1275;61519;-83
2022/02/07 12:12:50;;;;;;;11.40;2.20;;;;;;;5.99;71.04;101078.59;107353;1284;60626;-83
2022/02/07 12:15:31;;;;;;;12.50;2.30;;;;;;;5.92;71.00;101094.34;107337;1284;76187;-83
2022/02/07 12:18:17;;;;;;;14.80;2.20;;;;;;;5.82;72.01;101122.17;107581;1284;71404;-85
2022/02/07 12:20:48;;;;;;;7.30;1.80;;;;;;;5.37;78.33;101166.30;107414;1285;72931;-82
2022/02/07 12:23:21;;;;;;;5.90;1.90;;;;;;;4.52;86.95;101219.78;107317;1285;61620;-81
2022/02/07 12:25:57;;;;;;;4.30;1.00;;;;;;;3.80;91.58;101234.48;107334;1284;61563;-81
2022/02/07 12:34:37;;;;;;;;;;;;;;;;;;;;;
2022/02/07 12:37:37;;;;;;;3.70;0.30;;;;;;;1.75;98.68;101181.22;105765;1281;61395;-82
2022/02/07 12:40:52;;;;;;;3.50;0.50;;;;;;;1.63;99.55;101185.70;105750;1282;61662;-83
2022/02/07 12:43:59;;;;;;;6.00;2.00;;;;;;;2.18;99.81;101192.93;106085;1279;72624;-84
2022/02/07 12:47:14;;;;;;;4.10;0.90;;;;;;;3.43;97.68;101185.02;105230;1279;3584217;-85
2022/02/07 12:50:55;;;;;;;6.20;1.00;;;;;;;4.81;93.23;101175.73;105883;1277;72279;-85
2022/02/07 12:53:52;;;;;;;5.60;0.80;;;;;;;6.21;84.64;101181.07;105718;1277;74232;-86
2022/02/07 13:01:38;;;;;;;5.80;1.30;;;;;;;9.38;74.38;101161.80;104825;1281;71724;-79
2022/02/07 13:04:08;;;;;;;3.60;0.90;;;;;;;9.69;69.86;101165.02;104590;1284;71208;-80
2022/02/07 13:06:40;;;;;;;3.30;0.70;;;;;;;10.17;69.71;101172.77;104880;1281;74059;-79
2022/02/07 13:09:30;;;;;;;3.10;0.90;;;;;;;10.62;69.15;101179.04;104832;1282;62247;-81
2022/02/07 13:12:13;;;;;;;4.20;0.90;;;;;;;10.95;67.22;101177.48;104968;1281;60578;-79
2022/02/07 13:14:48;;;;;;;5.60;1.30;;;;;;;11.05;65.39;101192.92;104880;1284;73089;-79
2022/02/07 13:17:17;;;;;;;6.20;1.60;;;;;;;11.09;65.12;101202.58;105103;1281;71465;-80
2022/02/07 13:19:47;;;;;;;6.50;1.70;;;;;;;10.86;65.88;101203.05;105285;1281;73666;-81
2022/02/07 13:22:16;;;;;;;7.70;1.70;;;;;;;9.74;67.25;101212.21;105063;1271;60642;-81
2022/02/07 13:24:43;;;;;;;8.30;1.40;;;;;;;8.73;70.63;101217.30;105298;1274;61760;-82
2022/02/07 13:27:14;;;;;;;7.70;1.80;;;;;;;8.09;73.91;101213.70;105781;1281;73103;-81
2022/02/07 13:29:54;;;;;;;7.40;1.30;;;;;;;7.55;76.79;101222.33;105759;1281;72091;-82
2022/02/07 13:32:30;;;;;;;13.40;1.80;;;;;;;7.06;78.60;101237.75;105955;1274;72266;-80
2022/02/07 13:35:10;;;;;;;9.90;1.80;;;;;;;6.64;80.28;101238.17;105130;1282;62480;-84
2022/02/07 13:37:39;;;;;;;16.30;3.00;;;;;;;6.42;82.50;101241.78;105004;1283;61692;-79
2022/02/07 13:40:18;;;;;;;20.50;2.70;;;;;;;6.23;84.13;101255.42;104644;1283;74845;-80
2022/02/07 13:42:50;;;;;;;8.60;1.60;;;;;;;6.01;85.35;101252.35;104750;1283;70793;-80
2022/02/07 13:45:22;;;;;;;9.80;1.90;;;;;;;5.72;85.20;101268.13;106421;1274;74300;-80
2022/02/07 13:47:54;;;;;;;22.60;2.50;;;;;;;5.45;87.48;101275.31;105480;1274;64716;-82
2022/02/07 13:52:55;;;;;;;16.10;1.60;;;;;;;5.57;91.07;101295.51;105007;1280;74471;-81
2022/02/07 13:55:31;;;;;;;12.60;1.90;;;;;;;5.51;90.32;101298.86;104930;1282;71777;-82
2022/02/07 13:58:06;;;;;;;12.00;2.30;;;;;;;5.49;89.46;101306.20;105347;1271;73977;-83
2022/02/07 14:00:39;;;;;;;9.10;2.00;;;;;;;5.78;88.64;101301.85;105310;1278;61766;-82
2022/02/07 14:03:10;;;;;;;9.60;1.20;;;;;;;6.30;85.25;101305.22;105892;1270;62615;-82
2022/02/07 14:06:08;;;;;;;7.70;1.60;;;;;;;7.27;82.62;101311.45;105700;1271;72546;-80
2022/02/07 14:12:34;;;;;;;9.60;1.60;;;;;;;7.45;80.95;101321.85;105228;1283;73987;-81
2022/02/07 14:15:19;;;;;;;6.20;1.30;;;;;;;7.28;80.97;101326.10;105775;1283;60731;-81
2022/02/07 14:18:18;;;;;;;9.80;2.20;;;;;;;6.98;80.48;101337.98;105754;1281;60730;-82
2022/02/07 14:21:20;;;;;;;9.20;1.90;;;;;;;6.60;82.57;101319.33;105421;1284;74282;-81
2022/02/07 14:23:59;;;;;;;6.30;1.40;;;;;;;6.23;84.25;101339.58;105377;1284;70989;-79
2022/02/07 14:27:11;;;;;;;8.30;1.70;;;;;;;5.99;86.00;101346.14;105246;1283;74339;-80
2022/02/07 14:29:56;;;;;;;10.90;2.00;;;;;;;5.90;87.55;101347.73;105219;1282;63441;-79
2022/02/07 14:32:26;;;;;;;9.00;1.60;;;;;;;5.71;87.80;101351.39;105136;1284;60785;-80
2022/02/07 14:35:04;;;;;;;12.70;1.90;;;;;;;5.53;88.40;101355.30;105111;1284;73341;-80
2022/02/07 14:37:48;;;;;;;3.70;0.90;;;;;;;5.31;89.37;101352.02;105426;1282;71444;-81
2022/02/07 14:40:24;;;;;;;4.10;0.80;;;;;;;5.14;90.50;101354.80;105637;1284;72982;-81
2022/02/07 14:43:07;;;;;;;8.00;1.50;;;;;;;4.94;90.37;101362.91;105675;1283;62447;-83